sensor_id;sensor_type;location;lat;lon;timestamp;P1;durP1;ratioP1;P2;durP2;ratioP2
2320;SDS011;15376;48.540;9.268;2023-02-15T00:01:15;35.07;;;25.33;;
2320;SDS011;15376;48.540;9.268;2023-02-15T00:03:40;42.40;;;26.83;;
2320;SDS011;15376;48.540;9.268;2023-02-15T00:06:05;41.80;;;27.63;;
2320;SDS011;15376;48.540;9.268;2023-02-15T00:08:31;42.80;;;26.23;;
2320;SDS011;15376;48.540;9.268;2023-02-15T00:11:04;47.17;;;31.90;;
2320;SDS011;15376;48.540;9.268;2023-02-15T00:13:30;47.43;;;28.73;;
2320;SDS011;15376;48.540;9.268;2023-02-15T00:15:59;50.90;;;30.03;;
2320;SDS011;15376;48.540;9.268;2023-02-15T00:18:29;49.37;;;30.87;;
2320;SDS011;15376;48.540;9.268;2023-02-15T00:20:54;49.10;;;32.57;;
2320;SDS011;15376;48.540;9.268;2023-02-15T00:23:20;42.27;;;30.30;;
2320;SDS011;15376;48.540;9.268;2023-02-15T00:25:45;49.30;;;29.27;;
2320;SDS011;15376;48.540;9.268;2023-02-15T00:28:10;52.50;;;32.13;;
2320;SDS011;15376;48.540;9.268;2023-02-15T00:30:35;47.67;;;30.60;;
2320;SDS011;15376;48.540;9.268;2023-02-15T00:33:01;48.07;;;29.87;;
2320;SDS011;15376;48.540;9.268;2023-02-15T00:35:26;46.73;;;30.23;;
2320;SDS011;15376;48.540;9.268;2023-02-15T00:37:51;45.60;;;30.73;;
2320;SDS011;15376;48.540;9.268;2023-02-15T00:40:17;42.43;;;27.77;;
2320;SDS011;15376;48.540;9.268;2023-02-15T00:42:43;45.53;;;28.90;;
2320;SDS011;15376;48.540;9.268;2023-02-15T00:45:08;42.07;;;28.20;;
2320;SDS011;15376;48.540;9.268;2023-02-15T00:47:34;40.17;;;26.50;;
2320;SDS011;15376;48.540;9.268;2023-02-15T00:49:59;43.50;;;26.93;;
2320;SDS011;15376;48.540;9.268;2023-02-15T00:52:24;46.73;;;26.83;;
2320;SDS011;15376;48.540;9.268;2023-02-15T00:54:50;37.70;;;25.57;;
2320;SDS011;15376;48.540;9.268;2023-02-15T00:57:15;40.40;;;27.00;;
2320;SDS011;15376;48.540;9.268;2023-02-15T00:59:40;41.60;;;24.33;;
2320;SDS011;15376;48.540;9.268;2023-02-15T01:02:06;41.13;;;26.70;;
2320;SDS011;15376;48.540;9.268;2023-02-15T01:04:31;41.80;;;27.00;;
2320;SDS011;15376;48.540;9.268;2023-02-15T01:06:56;44.27;;;26.27;;
2320;SDS011;15376;48.540;9.268;2023-02-15T01:09:22;43.87;;;27.60;;
2320;SDS011;15376;48.540;9.268;2023-02-15T01:11:47;50.47;;;28.20;;
2320;SDS011;15376;48.540;9.268;2023-02-15T01:14:12;41.40;;;28.20;;
2320;SDS011;15376;48.540;9.268;2023-02-15T01:16:39;44.33;;;28.30;;
2320;SDS011;15376;48.540;9.268;2023-02-15T01:19:04;47.17;;;28.40;;
2320;SDS011;15376;48.540;9.268;2023-02-15T01:21:30;38.65;;;24.80;;
2320;SDS011;15376;48.540;9.268;2023-02-15T01:23:59;34.22;;;23.13;;
2320;SDS011;15376;48.540;9.268;2023-02-15T01:26:25;40.53;;;26.47;;
2320;SDS011;15376;48.540;9.268;2023-02-15T01:28:50;37.20;;;24.53;;
2320;SDS011;15376;48.540;9.268;2023-02-15T01:31:16;38.60;;;25.30;;
2320;SDS011;15376;48.540;9.268;2023-02-15T01:33:43;36.08;;;24.63;;
2320;SDS011;15376;48.540;9.268;2023-02-15T01:36:08;43.13;;;26.23;;
2320;SDS011;15376;48.540;9.268;2023-02-15T01:38:34;47.30;;;26.77;;
2320;SDS011;15376;48.540;9.268;2023-02-15T01:41:00;40.08;;;26.50;;
2320;SDS011;15376;48.540;9.268;2023-02-15T01:43:47;41.08;;;25.17;;
2320;SDS011;15376;48.540;9.268;2023-02-15T01:46:18;37.75;;;25.77;;
2320;SDS011;15376;48.540;9.268;2023-02-15T01:48:48;41.63;;;26.80;;
2320;SDS011;15376;48.540;9.268;2023-02-15T01:51:17;41.22;;;24.88;;
2320;SDS011;15376;48.540;9.268;2023-02-15T01:54:05;33.00;;;23.35;;
2320;SDS011;15376;48.540;9.268;2023-02-15T01:56:36;40.97;;;25.67;;
2320;SDS011;15376;48.540;9.268;2023-02-15T01:59:06;43.60;;;27.08;;
2320;SDS011;15376;48.540;9.268;2023-02-15T02:01:36;43.35;;;26.13;;
2320;SDS011;15376;48.540;9.268;2023-02-15T02:06:43;46.60;;;29.20;;
2320;SDS011;15376;48.540;9.268;2023-02-15T02:09:11;41.53;;;27.23;;
2320;SDS011;15376;48.540;9.268;2023-02-15T02:11:38;39.42;;;27.38;;
2320;SDS011;15376;48.540;9.268;2023-02-15T02:14:04;43.00;;;26.88;;
2320;SDS011;15376;48.540;9.268;2023-02-15T02:17:04;38.40;;;23.37;;
2320;SDS011;15376;48.540;9.268;2023-02-15T02:29:03;39.47;;;24.00;;
2320;SDS011;15376;48.540;9.268;2023-02-15T02:34:45;37.92;;;23.48;;
2320;SDS011;15376;48.540;9.268;2023-02-15T02:37:24;36.67;;;23.60;;
2320;SDS011;15376;48.540;9.268;2023-02-15T02:39:58;33.75;;;23.63;;
2320;SDS011;15376;48.540;9.268;2023-02-15T02:45:06;44.40;;;25.55;;
2320;SDS011;15376;48.540;9.268;2023-02-15T02:47:36;35.40;;;23.63;;
2320;SDS011;15376;48.540;9.268;2023-02-15T02:50:09;36.63;;;24.52;;
2320;SDS011;15376;48.540;9.268;2023-02-15T02:52:40;43.83;;;25.55;;
2320;SDS011;15376;48.540;9.268;2023-02-15T02:55:16;40.72;;;25.00;;
2320;SDS011;15376;48.540;9.268;2023-02-15T02:57:51;38.35;;;25.90;;
2320;SDS011;15376;48.540;9.268;2023-02-15T03:00:17;43.20;;;25.23;;
2320;SDS011;15376;48.540;9.268;2023-02-15T03:02:45;44.97;;;26.17;;
2320;SDS011;15376;48.540;9.268;2023-02-15T03:05:17;37.28;;;24.42;;
2320;SDS011;15376;48.540;9.268;2023-02-15T03:07:47;36.30;;;23.25;;
2320;SDS011;15376;48.540;9.268;2023-02-15T03:10:16;35.55;;;22.25;;
2320;SDS011;15376;48.540;9.268;2023-02-15T03:12:43;34.85;;;22.23;;
2320;SDS011;15376;48.540;9.268;2023-02-15T03:15:16;30.97;;;21.60;;
2320;SDS011;15376;48.540;9.268;2023-02-15T03:18:22;40.47;;;24.10;;
2320;SDS011;15376;48.540;9.268;2023-02-15T03:20:52;32.28;;;22.42;;
2320;SDS011;15376;48.540;9.268;2023-02-15T03:23:23;33.92;;;21.77;;
2320;SDS011;15376;48.540;9.268;2023-02-15T03:25:52;34.65;;;21.20;;
2320;SDS011;15376;48.540;9.268;2023-02-15T03:28:27;36.28;;;22.77;;
2320;SDS011;15376;48.540;9.268;2023-02-15T03:30:58;36.83;;;20.88;;
2320;SDS011;15376;48.540;9.268;2023-02-15T03:33:26;29.15;;;20.20;;
2320;SDS011;15376;48.540;9.268;2023-02-15T03:35:55;40.40;;;24.80;;
2320;SDS011;15376;48.540;9.268;2023-02-15T03:38:40;33.35;;;22.33;;
2320;SDS011;15376;48.540;9.268;2023-02-15T03:41:13;28.13;;;19.88;;
2320;SDS011;15376;48.540;9.268;2023-02-15T03:46:21;36.22;;;23.10;;
2320;SDS011;15376;48.540;9.268;2023-02-15T03:48:53;37.92;;;20.77;;
2320;SDS011;15376;48.540;9.268;2023-02-15T03:51:23;32.30;;;21.80;;
2320;SDS011;15376;48.540;9.268;2023-02-15T03:54:00;38.20;;;21.52;;
2320;SDS011;15376;48.540;9.268;2023-02-15T03:56:28;38.83;;;23.77;;
2320;SDS011;15376;48.540;9.268;2023-02-15T03:58:53;35.70;;;22.47;;
2320;SDS011;15376;48.540;9.268;2023-02-15T04:02:20;38.15;;;23.73;;
2320;SDS011;15376;48.540;9.268;2023-02-15T04:04:36;36.38;;;23.75;;
2320;SDS011;15376;48.540;9.268;2023-02-15T04:07:05;36.17;;;23.30;;
2320;SDS011;15376;48.540;9.268;2023-02-15T04:09:31;39.65;;;24.17;;
2320;SDS011;15376;48.540;9.268;2023-02-15T04:12:15;31.80;;;23.85;;
2320;SDS011;15376;48.540;9.268;2023-02-15T04:14:51;31.53;;;22.07;;
2320;SDS011;15376;48.540;9.268;2023-02-15T04:17:36;34.65;;;22.33;;
2320;SDS011;15376;48.540;9.268;2023-02-15T04:20:02;38.70;;;24.92;;
2320;SDS011;15376;48.540;9.268;2023-02-15T04:22:46;38.42;;;25.05;;
2320;SDS011;15376;48.540;9.268;2023-02-15T04:25:30;33.50;;;23.33;;
2320;SDS011;15376;48.540;9.268;2023-02-15T04:27:56;31.43;;;21.80;;
2320;SDS011;15376;48.540;9.268;2023-02-15T04:30:22;32.83;;;21.97;;
2320;SDS011;15376;48.540;9.268;2023-02-15T04:32:49;38.05;;;23.42;;
2320;SDS011;15376;48.540;9.268;2023-02-15T04:35:14;38.30;;;22.03;;
2320;SDS011;15376;48.540;9.268;2023-02-15T04:37:40;38.00;;;24.70;;
2320;SDS011;15376;48.540;9.268;2023-02-15T04:40:08;35.97;;;24.30;;
2320;SDS011;15376;48.540;9.268;2023-02-15T04:42:35;33.80;;;22.30;;
2320;SDS011;15376;48.540;9.268;2023-02-15T04:45:01;32.90;;;23.50;;
2320;SDS011;15376;48.540;9.268;2023-02-15T04:47:26;38.97;;;24.70;;
2320;SDS011;15376;48.540;9.268;2023-02-15T04:49:52;34.40;;;22.73;;
2320;SDS011;15376;48.540;9.268;2023-02-15T04:52:17;36.80;;;23.87;;
2320;SDS011;15376;48.540;9.268;2023-02-15T04:54:43;32.03;;;23.17;;
2320;SDS011;15376;48.540;9.268;2023-02-15T04:57:09;45.95;;;27.67;;
2320;SDS011;15376;48.540;9.268;2023-02-15T04:59:34;51.67;;;28.17;;
2320;SDS011;15376;48.540;9.268;2023-02-15T05:02:00;39.00;;;24.80;;
2320;SDS011;15376;48.540;9.268;2023-02-15T05:04:25;36.77;;;25.43;;
2320;SDS011;15376;48.540;9.268;2023-02-15T05:06:50;37.87;;;26.87;;
2320;SDS011;15376;48.540;9.268;2023-02-15T05:09:16;44.07;;;26.50;;
2320;SDS011;15376;48.540;9.268;2023-02-15T05:11:42;36.93;;;26.13;;
2320;SDS011;15376;48.540;9.268;2023-02-15T05:14:07;40.50;;;27.33;;
2320;SDS011;15376;48.540;9.268;2023-02-15T05:16:33;39.63;;;27.50;;
2320;SDS011;15376;48.540;9.268;2023-02-15T05:18:58;39.67;;;25.13;;
2320;SDS011;15376;48.540;9.268;2023-02-15T05:21:24;36.80;;;24.10;;
2320;SDS011;15376;48.540;9.268;2023-02-15T05:23:49;32.47;;;23.93;;
2320;SDS011;15376;48.540;9.268;2023-02-15T05:26:21;40.40;;;23.60;;
2320;SDS011;15376;48.540;9.268;2023-02-15T05:29:06;42.03;;;24.50;;
2320;SDS011;15376;48.540;9.268;2023-02-15T05:31:32;31.80;;;22.90;;
2320;SDS011;15376;48.540;9.268;2023-02-15T05:33:58;36.53;;;23.95;;
2320;SDS011;15376;48.540;9.268;2023-02-15T05:36:24;36.07;;;23.17;;
2320;SDS011;15376;48.540;9.268;2023-02-15T05:38:49;34.30;;;22.07;;
2320;SDS011;15376;48.540;9.268;2023-02-15T05:41:14;42.63;;;25.40;;
2320;SDS011;15376;48.540;9.268;2023-02-15T05:43:40;43.03;;;26.93;;
2320;SDS011;15376;48.540;9.268;2023-02-15T05:46:05;46.53;;;26.47;;
2320;SDS011;15376;48.540;9.268;2023-02-15T05:48:32;52.20;;;28.88;;
2320;SDS011;15376;48.540;9.268;2023-02-15T05:53:49;44.70;;;24.50;;
2320;SDS011;15376;48.540;9.268;2023-02-15T05:56:14;44.07;;;27.77;;
2320;SDS011;15376;48.540;9.268;2023-02-15T05:58:40;39.70;;;26.87;;
2320;SDS011;15376;48.540;9.268;2023-02-15T06:01:13;33.50;;;25.10;;
2320;SDS011;15376;48.540;9.268;2023-02-15T06:03:40;39.85;;;26.58;;
2320;SDS011;15376;48.540;9.268;2023-02-15T06:06:06;33.77;;;25.07;;
2320;SDS011;15376;48.540;9.268;2023-02-15T06:08:32;47.73;;;28.10;;
2320;SDS011;15376;48.540;9.268;2023-02-15T06:10:58;39.15;;;25.00;;
2320;SDS011;15376;48.540;9.268;2023-02-15T06:13:24;42.93;;;27.57;;
2320;SDS011;15376;48.540;9.268;2023-02-15T06:15:49;37.50;;;24.57;;
2320;SDS011;15376;48.540;9.268;2023-02-15T06:18:14;40.37;;;24.13;;
2320;SDS011;15376;48.540;9.268;2023-02-15T06:20:40;40.83;;;26.23;;
2320;SDS011;15376;48.540;9.268;2023-02-15T06:23:05;38.50;;;24.30;;
2320;SDS011;15376;48.540;9.268;2023-02-15T06:25:30;40.10;;;26.53;;
2320;SDS011;15376;48.540;9.268;2023-02-15T06:27:55;45.63;;;28.57;;
2320;SDS011;15376;48.540;9.268;2023-02-15T06:30:21;38.20;;;25.33;;
2320;SDS011;15376;48.540;9.268;2023-02-15T06:32:46;50.97;;;30.40;;
2320;SDS011;15376;48.540;9.268;2023-02-15T06:35:12;42.70;;;24.47;;
2320;SDS011;15376;48.540;9.268;2023-02-15T06:37:37;35.40;;;24.23;;
2320;SDS011;15376;48.540;9.268;2023-02-15T06:40:03;33.17;;;22.30;;
2320;SDS011;15376;48.540;9.268;2023-02-15T06:42:29;34.47;;;23.20;;
2320;SDS011;15376;48.540;9.268;2023-02-15T06:44:55;38.00;;;23.13;;
2320;SDS011;15376;48.540;9.268;2023-02-15T06:47:20;36.43;;;22.03;;
2320;SDS011;15376;48.540;9.268;2023-02-15T06:49:45;33.57;;;23.13;;
2320;SDS011;15376;48.540;9.268;2023-02-15T06:52:11;39.63;;;24.93;;
2320;SDS011;15376;48.540;9.268;2023-02-15T06:54:36;39.63;;;24.57;;
2320;SDS011;15376;48.540;9.268;2023-02-15T06:57:01;37.07;;;23.90;;
2320;SDS011;15376;48.540;9.268;2023-02-15T06:59:27;44.33;;;25.27;;
2320;SDS011;15376;48.540;9.268;2023-02-15T07:01:52;40.40;;;26.30;;
2320;SDS011;15376;48.540;9.268;2023-02-15T07:04:17;42.10;;;24.90;;
2320;SDS011;15376;48.540;9.268;2023-02-15T07:06:43;36.30;;;22.97;;
2320;SDS011;15376;48.540;9.268;2023-02-15T07:09:08;37.20;;;24.00;;
2320;SDS011;15376;48.540;9.268;2023-02-15T07:11:33;34.57;;;22.93;;
2320;SDS011;15376;48.540;9.268;2023-02-15T07:14:17;39.28;;;24.35;;
2320;SDS011;15376;48.540;9.268;2023-02-15T07:16:43;39.70;;;25.40;;
2320;SDS011;15376;48.540;9.268;2023-02-15T07:19:08;39.10;;;23.07;;
2320;SDS011;15376;48.540;9.268;2023-02-15T07:21:34;37.13;;;22.70;;
2320;SDS011;15376;48.540;9.268;2023-02-15T07:24:00;33.72;;;22.27;;
2320;SDS011;15376;48.540;9.268;2023-02-15T07:26:25;33.63;;;22.50;;
2320;SDS011;15376;48.540;9.268;2023-02-15T07:28:51;37.13;;;23.77;;
2320;SDS011;15376;48.540;9.268;2023-02-15T07:31:16;42.33;;;25.40;;
2320;SDS011;15376;48.540;9.268;2023-02-15T07:33:42;40.23;;;24.27;;
2320;SDS011;15376;48.540;9.268;2023-02-15T07:36:07;37.53;;;22.43;;
2320;SDS011;15376;48.540;9.268;2023-02-15T07:38:37;32.60;;;22.73;;
2320;SDS011;15376;48.540;9.268;2023-02-15T07:41:05;36.45;;;22.23;;
2320;SDS011;15376;48.540;9.268;2023-02-15T07:43:32;34.83;;;22.63;;
2320;SDS011;15376;48.540;9.268;2023-02-15T07:46:03;35.15;;;23.35;;
2320;SDS011;15376;48.540;9.268;2023-02-15T07:48:30;32.85;;;21.20;;
2320;SDS011;15376;48.540;9.268;2023-02-15T07:50:59;31.93;;;22.27;;
2320;SDS011;15376;48.540;9.268;2023-02-15T07:53:26;29.52;;;22.38;;
2320;SDS011;15376;48.540;9.268;2023-02-15T07:55:52;31.47;;;22.70;;
2320;SDS011;15376;48.540;9.268;2023-02-15T07:58:17;34.33;;;24.10;;
2320;SDS011;15376;48.540;9.268;2023-02-15T08:00:43;32.78;;;22.77;;
2320;SDS011;15376;48.540;9.268;2023-02-15T08:03:26;33.13;;;21.83;;
2320;SDS011;15376;48.540;9.268;2023-02-15T08:05:57;31.60;;;23.77;;
2320;SDS011;15376;48.540;9.268;2023-02-15T08:08:24;33.73;;;23.70;;
2320;SDS011;15376;48.540;9.268;2023-02-15T08:11:03;26.30;;;21.63;;
2320;SDS011;15376;48.540;9.268;2023-02-15T08:13:48;34.60;;;24.77;;
2320;SDS011;15376;48.540;9.268;2023-02-15T08:16:28;32.23;;;20.87;;
2320;SDS011;15376;48.540;9.268;2023-02-15T08:18:55;35.27;;;24.63;;
2320;SDS011;15376;48.540;9.268;2023-02-15T08:21:22;34.10;;;25.23;;
2320;SDS011;15376;48.540;9.268;2023-02-15T08:23:47;37.87;;;25.73;;
2320;SDS011;15376;48.540;9.268;2023-02-15T08:26:13;37.97;;;24.83;;
2320;SDS011;15376;48.540;9.268;2023-02-15T08:28:42;29.80;;;23.50;;
2320;SDS011;15376;48.540;9.268;2023-02-15T08:31:09;30.83;;;22.27;;
2320;SDS011;15376;48.540;9.268;2023-02-15T08:33:36;34.93;;;26.03;;
2320;SDS011;15376;48.540;9.268;2023-02-15T08:36:07;34.63;;;22.77;;
2320;SDS011;15376;48.540;9.268;2023-02-15T08:38:35;32.43;;;22.17;;
2320;SDS011;15376;48.540;9.268;2023-02-15T08:41:18;30.27;;;22.67;;
2320;SDS011;15376;48.540;9.268;2023-02-15T08:43:46;31.57;;;22.33;;
2320;SDS011;15376;48.540;9.268;2023-02-15T08:46:14;35.77;;;25.77;;
2320;SDS011;15376;48.540;9.268;2023-02-15T08:48:40;27.80;;;20.60;;
2320;SDS011;15376;48.540;9.268;2023-02-15T08:51:07;32.70;;;21.93;;
2320;SDS011;15376;48.540;9.268;2023-02-15T08:53:36;33.87;;;21.20;;
2320;SDS011;15376;48.540;9.268;2023-02-15T08:56:05;29.90;;;20.20;;
2320;SDS011;15376;48.540;9.268;2023-02-15T08:58:31;27.37;;;20.20;;
2320;SDS011;15376;48.540;9.268;2023-02-15T09:00:57;25.40;;;19.40;;
2320;SDS011;15376;48.540;9.268;2023-02-15T09:03:23;26.43;;;19.63;;
2320;SDS011;15376;48.540;9.268;2023-02-15T09:05:48;21.67;;;17.80;;
2320;SDS011;15376;48.540;9.268;2023-02-15T09:08:14;24.40;;;18.10;;
2320;SDS011;15376;48.540;9.268;2023-02-15T09:10:39;23.23;;;18.37;;
2320;SDS011;15376;48.540;9.268;2023-02-15T09:13:05;21.83;;;17.17;;
2320;SDS011;15376;48.540;9.268;2023-02-15T09:15:30;20.40;;;14.73;;
2320;SDS011;15376;48.540;9.268;2023-02-15T09:17:55;20.67;;;14.50;;
2320;SDS011;15376;48.540;9.268;2023-02-15T09:20:21;18.97;;;14.30;;
2320;SDS011;15376;48.540;9.268;2023-02-15T09:22:47;17.10;;;14.00;;
2320;SDS011;15376;48.540;9.268;2023-02-15T09:25:12;18.00;;;13.93;;
2320;SDS011;15376;48.540;9.268;2023-02-15T09:27:38;19.70;;;14.40;;
2320;SDS011;15376;48.540;9.268;2023-02-15T09:30:04;16.00;;;14.00;;
2320;SDS011;15376;48.540;9.268;2023-02-15T09:32:31;13.83;;;11.90;;
2320;SDS011;15376;48.540;9.268;2023-02-15T09:34:56;12.47;;;11.17;;
2320;SDS011;15376;48.540;9.268;2023-02-15T09:37:21;14.40;;;11.33;;
2320;SDS011;15376;48.540;9.268;2023-02-15T09:39:46;14.90;;;13.43;;
2320;SDS011;15376;48.540;9.268;2023-02-15T09:42:55;16.03;;;13.63;;
2320;SDS011;15376;48.540;9.268;2023-02-15T09:53:49;14.90;;;12.17;;
2320;SDS011;15376;48.540;9.268;2023-02-15T09:56:31;16.87;;;13.30;;
2320;SDS011;15376;48.540;9.268;2023-02-15T09:59:07;18.00;;;13.60;;
2320;SDS011;15376;48.540;9.268;2023-02-15T10:10:19;17.87;;;13.83;;
2320;SDS011;15376;48.540;9.268;2023-02-15T10:26:28;18.17;;;15.57;;
2320;SDS011;15376;48.540;9.268;2023-02-15T10:29:21;15.30;;;13.80;;
2320;SDS011;15376;48.540;9.268;2023-02-15T10:31:55;17.77;;;15.23;;
2320;SDS011;15376;48.540;9.268;2023-02-15T10:34:43;22.33;;;16.47;;
2320;SDS011;15376;48.540;9.268;2023-02-15T10:37:26;17.70;;;14.17;;
2320;SDS011;15376;48.540;9.268;2023-02-15T10:40:14;18.53;;;15.50;;
2320;SDS011;15376;48.540;9.268;2023-02-15T10:48:48;18.77;;;14.97;;
2320;SDS011;15376;48.540;9.268;2023-02-15T10:51:57;19.80;;;17.70;;
2320;SDS011;15376;48.540;9.268;2023-02-15T10:57:19;20.20;;;17.73;;
2320;SDS011;15376;48.540;9.268;2023-02-15T11:07:55;16.80;;;13.30;;
2320;SDS011;15376;48.540;9.268;2023-02-15T11:13:17;19.20;;;14.60;;
2320;SDS011;15376;48.540;9.268;2023-02-15T11:15:49;17.37;;;14.70;;
2320;SDS011;15376;48.540;9.268;2023-02-15T11:18:32;20.90;;;14.47;;
2320;SDS011;15376;48.540;9.268;2023-02-15T11:21:03;14.20;;;12.43;;
2320;SDS011;15376;48.540;9.268;2023-02-15T11:23:35;17.67;;;12.10;;
2320;SDS011;15376;48.540;9.268;2023-02-15T11:26:09;16.63;;;14.33;;
2320;SDS011;15376;48.540;9.268;2023-02-15T11:28:42;18.60;;;13.77;;
2320;SDS011;15376;48.540;9.268;2023-02-15T11:31:15;15.83;;;12.00;;
2320;SDS011;15376;48.540;9.268;2023-02-15T11:33:44;16.03;;;12.30;;
2320;SDS011;15376;48.540;9.268;2023-02-15T11:38:56;16.50;;;13.17;;
2320;SDS011;15376;48.540;9.268;2023-02-15T11:41:28;15.03;;;11.80;;
2320;SDS011;15376;48.540;9.268;2023-02-15T11:43:58;14.87;;;12.17;;
2320;SDS011;15376;48.540;9.268;2023-02-15T11:46:31;13.60;;;12.20;;
2320;SDS011;15376;48.540;9.268;2023-02-15T11:48:57;17.33;;;13.50;;
2320;SDS011;15376;48.540;9.268;2023-02-15T11:51:23;15.07;;;11.03;;
2320;SDS011;15376;48.540;9.268;2023-02-15T11:53:49;12.47;;;10.13;;
2320;SDS011;15376;48.540;9.268;2023-02-15T11:56:22;13.50;;;11.57;;
2320;SDS011;15376;48.540;9.268;2023-02-15T11:59:06;12.80;;;11.50;;
2320;SDS011;15376;48.540;9.268;2023-02-15T12:01:39;17.50;;;11.10;;
2320;SDS011;15376;48.540;9.268;2023-02-15T12:07:32;16.53;;;11.10;;
2320;SDS011;15376;48.540;9.268;2023-02-15T12:10:13;13.23;;;11.13;;
2320;SDS011;15376;48.540;9.268;2023-02-15T12:12:45;12.27;;;10.73;;
2320;SDS011;15376;48.540;9.268;2023-02-15T12:15:11;12.23;;;11.03;;
2320;SDS011;15376;48.540;9.268;2023-02-15T12:17:39;12.33;;;10.93;;
2320;SDS011;15376;48.540;9.268;2023-02-15T12:20:28;62.37;;;52.33;;
2320;SDS011;15376;48.540;9.268;2023-02-15T12:22:55;13.17;;;10.90;;
2320;SDS011;15376;48.540;9.268;2023-02-15T12:31:25;19.63;;;11.97;;
2320;SDS011;15376;48.540;9.268;2023-02-15T12:33:53;16.70;;;11.00;;
2320;SDS011;15376;48.540;9.268;2023-02-15T12:36:24;15.60;;;11.40;;
2320;SDS011;15376;48.540;9.268;2023-02-15T12:44:20;12.70;;;10.20;;
2320;SDS011;15376;48.540;9.268;2023-02-15T12:46:56;15.27;;;10.93;;
2320;SDS011;15376;48.540;9.268;2023-02-15T12:49:23;11.17;;;9.27;;
2320;SDS011;15376;48.540;9.268;2023-02-15T12:51:50;11.20;;;9.10;;
2320;SDS011;15376;48.540;9.268;2023-02-15T12:56:49;13.97;;;8.13;;
2320;SDS011;15376;48.540;9.268;2023-02-15T12:59:15;15.23;;;9.70;;
2320;SDS011;15376;48.540;9.268;2023-02-15T13:01:45;9.23;;;8.33;;
2320;SDS011;15376;48.540;9.268;2023-02-15T13:04:18;10.93;;;8.23;;
2320;SDS011;15376;48.540;9.268;2023-02-15T13:06:47;9.87;;;7.03;;
2320;SDS011;15376;48.540;9.268;2023-02-15T13:09:15;10.13;;;8.90;;
2320;SDS011;15376;48.540;9.268;2023-02-15T13:11:44;14.47;;;11.60;;
2320;SDS011;15376;48.540;9.268;2023-02-15T13:14:18;18.93;;;13.40;;
2320;SDS011;15376;48.540;9.268;2023-02-15T13:16:47;13.90;;;12.60;;
2320;SDS011;15376;48.540;9.268;2023-02-15T13:19:19;17.10;;;13.13;;
2320;SDS011;15376;48.540;9.268;2023-02-15T13:21:50;14.77;;;12.40;;
2320;SDS011;15376;48.540;9.268;2023-02-15T13:26:43;18.13;;;12.93;;
2320;SDS011;15376;48.540;9.268;2023-02-15T13:29:21;15.30;;;12.83;;
2320;SDS011;15376;48.540;9.268;2023-02-15T13:31:50;18.50;;;12.70;;
2320;SDS011;15376;48.540;9.268;2023-02-15T13:34:22;15.63;;;13.37;;
2320;SDS011;15376;48.540;9.268;2023-02-15T13:37:05;14.67;;;12.27;;
2320;SDS011;15376;48.540;9.268;2023-02-15T13:48:13;15.50;;;12.37;;
2320;SDS011;15376;48.540;9.268;2023-02-15T14:02:36;12.33;;;10.27;;
2320;SDS011;15376;48.540;9.268;2023-02-15T14:11:15;9.00;;;8.10;;
2320;SDS011;15376;48.540;9.268;2023-02-15T14:13:53;8.50;;;7.67;;
2320;SDS011;15376;48.540;9.268;2023-02-15T14:19:28;10.73;;;8.47;;
2320;SDS011;15376;48.540;9.268;2023-02-15T14:22:14;11.07;;;8.87;;
2320;SDS011;15376;48.540;9.268;2023-02-15T14:25:18;12.83;;;8.67;;
2320;SDS011;15376;48.540;9.268;2023-02-15T14:28:16;11.70;;;7.47;;
2320;SDS011;15376;48.540;9.268;2023-02-15T14:30:58;10.97;;;6.60;;
2320;SDS011;15376;48.540;9.268;2023-02-15T14:33:52;14.60;;;7.57;;
2320;SDS011;15376;48.540;9.268;2023-02-15T14:36:20;12.77;;;6.80;;
2320;SDS011;15376;48.540;9.268;2023-02-15T14:41:47;6.10;;;5.17;;
2320;SDS011;15376;48.540;9.268;2023-02-15T14:47:13;6.30;;;4.40;;
2320;SDS011;15376;48.540;9.268;2023-02-15T14:49:45;6.83;;;6.00;;
2320;SDS011;15376;48.540;9.268;2023-02-15T14:52:10;4.67;;;4.17;;
2320;SDS011;15376;48.540;9.268;2023-02-15T15:05:32;5.80;;;4.30;;
2320;SDS011;15376;48.540;9.268;2023-02-15T15:07:59;6.37;;;4.47;;
2320;SDS011;15376;48.540;9.268;2023-02-15T15:10:35;7.27;;;4.40;;
2320;SDS011;15376;48.540;9.268;2023-02-15T15:19:56;8.07;;;6.00;;
2320;SDS011;15376;48.540;9.268;2023-02-15T15:22:21;9.00;;;6.80;;
2320;SDS011;15376;48.540;9.268;2023-02-15T15:32:43;12.50;;;8.50;;
2320;SDS011;15376;48.540;9.268;2023-02-15T15:49:14;19.20;;;10.37;;
2320;SDS011;15376;48.540;9.268;2023-02-15T15:51:43;10.70;;;8.67;;
2320;SDS011;15376;48.540;9.268;2023-02-15T15:54:17;11.57;;;7.97;;
2320;SDS011;15376;48.540;9.268;2023-02-15T15:56:47;12.37;;;7.80;;
2320;SDS011;15376;48.540;9.268;2023-02-15T15:59:21;10.30;;;8.00;;
2320;SDS011;15376;48.540;9.268;2023-02-15T16:01:49;12.73;;;8.80;;
2320;SDS011;15376;48.540;9.268;2023-02-15T16:04:22;10.13;;;8.10;;
2320;SDS011;15376;48.540;9.268;2023-02-15T16:06:54;11.10;;;8.30;;
2320;SDS011;15376;48.540;9.268;2023-02-15T16:11:52;10.90;;;8.63;;
2320;SDS011;15376;48.540;9.268;2023-02-15T16:16:57;15.93;;;9.37;;
2320;SDS011;15376;48.540;9.268;2023-02-15T16:19:27;10.77;;;8.13;;
2320;SDS011;15376;48.540;9.268;2023-02-15T16:21:55;11.93;;;8.90;;
2320;SDS011;15376;48.540;9.268;2023-02-15T16:26:59;11.60;;;9.23;;
2320;SDS011;15376;48.540;9.268;2023-02-15T16:29:30;11.33;;;9.20;;
2320;SDS011;15376;48.540;9.268;2023-02-15T16:34:30;13.13;;;8.77;;
2320;SDS011;15376;48.540;9.268;2023-02-15T16:39:42;9.83;;;7.83;;
2320;SDS011;15376;48.540;9.268;2023-02-15T16:42:10;10.73;;;8.70;;
2320;SDS011;15376;48.540;9.268;2023-02-15T16:44:36;13.10;;;8.93;;
2320;SDS011;15376;48.540;9.268;2023-02-15T16:47:02;14.27;;;10.87;;
2320;SDS011;15376;48.540;9.268;2023-02-15T16:49:28;14.73;;;10.40;;
2320;SDS011;15376;48.540;9.268;2023-02-15T16:52:01;12.10;;;9.27;;
2320;SDS011;15376;48.540;9.268;2023-02-15T16:54:32;12.53;;;9.20;;
2320;SDS011;15376;48.540;9.268;2023-02-15T16:56:59;10.87;;;8.77;;
2320;SDS011;15376;48.540;9.268;2023-02-15T17:01:55;16.00;;;10.70;;
2320;SDS011;15376;48.540;9.268;2023-02-15T17:06:58;15.10;;;9.57;;
2320;SDS011;15376;48.540;9.268;2023-02-15T17:09:26;13.77;;;8.93;;
2320;SDS011;15376;48.540;9.268;2023-02-15T17:11:51;13.57;;;9.30;;
2320;SDS011;15376;48.540;9.268;2023-02-15T17:14:20;17.33;;;10.43;;
2320;SDS011;15376;48.540;9.268;2023-02-15T17:16:58;21.83;;;12.77;;
2320;SDS011;15376;48.540;9.268;2023-02-15T17:19:32;30.80;;;10.80;;
2320;SDS011;15376;48.540;9.268;2023-02-15T17:22:14;15.03;;;11.00;;
2320;SDS011;15376;48.540;9.268;2023-02-15T17:24:45;37.77;;;10.73;;
2320;SDS011;15376;48.540;9.268;2023-02-15T17:29:46;17.53;;;8.90;;
2320;SDS011;15376;48.540;9.268;2023-02-15T17:32:20;31.90;;;12.13;;
2320;SDS011;15376;48.540;9.268;2023-02-15T17:37:25;16.63;;;7.97;;
2320;SDS011;15376;48.540;9.268;2023-02-15T17:39:53;14.10;;;8.20;;
2320;SDS011;15376;48.540;9.268;2023-02-15T17:42:19;9.83;;;8.30;;
2320;SDS011;15376;48.540;9.268;2023-02-15T17:44:44;10.53;;;7.93;;
2320;SDS011;15376;48.540;9.268;2023-02-15T17:47:12;14.90;;;8.20;;
2320;SDS011;15376;48.540;9.268;2023-02-15T17:49:41;11.30;;;8.00;;
2320;SDS011;15376;48.540;9.268;2023-02-15T17:52:09;16.40;;;9.63;;
2320;SDS011;15376;48.540;9.268;2023-02-15T17:54:38;11.57;;;9.07;;
2320;SDS011;15376;48.540;9.268;2023-02-15T17:57:21;11.50;;;8.60;;
2320;SDS011;15376;48.540;9.268;2023-02-15T17:59:47;11.80;;;8.93;;
2320;SDS011;15376;48.540;9.268;2023-02-15T18:02:31;11.37;;;8.73;;
2320;SDS011;15376;48.540;9.268;2023-02-15T18:05:18;14.67;;;7.73;;
2320;SDS011;15376;48.540;9.268;2023-02-15T18:08:02;16.80;;;10.60;;
2320;SDS011;15376;48.540;9.268;2023-02-15T18:10:46;14.80;;;9.97;;